createdAt,value
2019-02-09T00:00:39.158Z,2.70
2019-02-09T00:03:16.993Z,2.80
2019-02-09T00:05:47.091Z,2.90
2019-02-09T00:08:18.703Z,2.90
2019-02-09T00:10:56.150Z,3.00
2019-02-09T00:13:23.838Z,2.90
2019-02-09T00:15:59.294Z,2.90
2019-02-09T00:18:31.243Z,2.90
2019-02-09T00:21:01.687Z,3.00
2019-02-09T00:23:34.375Z,3.00
2019-02-09T00:26:06.197Z,3.00
2019-02-09T00:28:36.511Z,3.00
2019-02-09T00:31:09.454Z,3.00
2019-02-09T00:33:50.258Z,3.00
2019-02-09T00:36:22.823Z,2.90
2019-02-09T00:38:53.077Z,2.90
2019-02-09T00:41:23.122Z,2.80
2019-02-09T00:43:53.248Z,2.80
2019-02-09T00:46:23.360Z,2.80
2019-02-09T00:48:53.485Z,2.80
2019-02-09T00:51:23.749Z,2.90
2019-02-09T00:53:53.956Z,3.00
2019-02-09T00:56:26.850Z,3.00
2019-02-09T00:58:57.136Z,3.10
2019-02-09T01:01:34.590Z,3.30
2019-02-09T01:04:05.595Z,3.50
2019-02-09T01:06:38.745Z,3.70
2019-02-09T01:09:13.295Z,3.80
2019-02-09T01:11:43.639Z,4.10
2019-02-09T01:14:13.836Z,4.40
2019-02-09T01:16:46.650Z,4.50
2019-02-09T01:19:19.491Z,4.60
2019-02-09T01:21:52.119Z,4.60
2019-02-09T01:24:22.898Z,4.80
2019-02-09T01:26:53.114Z,4.80
2019-02-09T01:29:23.220Z,4.90
2019-02-09T01:31:54.491Z,4.90
2019-02-09T01:34:24.517Z,4.90
2019-02-09T01:36:55.516Z,4.90
2019-02-09T01:39:27.177Z,4.90
2019-02-09T01:41:59.090Z,5.10
2019-02-09T01:44:31.415Z,5.40
2019-02-09T01:47:01.547Z,5.60
2019-02-09T01:49:47.911Z,5.50
2019-02-09T01:52:09.622Z,5.40
2019-02-09T01:54:49.711Z,5.60
2019-02-09T01:57:15.954Z,5.60
2019-02-09T01:59:53.785Z,5.60
2019-02-09T02:02:25.888Z,5.70
2019-02-09T02:04:59.881Z,5.70
2019-02-09T02:07:32.994Z,5.80
2019-02-09T02:10:06.519Z,6.00
2019-02-09T02:12:39.054Z,6.00
2019-02-09T02:15:15.505Z,6.00
2019-02-09T02:17:48.722Z,6.10
2019-02-09T02:20:22.506Z,6.40
2019-02-09T02:22:57.709Z,6.40
2019-02-09T02:25:31.478Z,6.40
2019-02-09T02:28:10.146Z,6.30
2019-02-09T02:30:40.294Z,6.20
2019-02-09T02:33:19.523Z,6.10
2019-02-09T02:35:56.065Z,6.00
2019-02-09T02:38:32.713Z,5.90
2019-02-09T02:41:01.199Z,5.80
2019-02-09T02:43:34.038Z,5.80
2019-02-09T02:46:09.109Z,5.70
2019-02-09T02:48:39.252Z,5.70
2019-02-09T02:51:17.320Z,5.70
2019-02-09T02:53:44.888Z,5.70
2019-02-09T02:56:15.037Z,5.60
2019-02-09T02:58:46.609Z,5.60
2019-02-09T03:01:18.356Z,5.60
2019-02-09T03:03:53.143Z,5.60
2019-02-09T03:06:28.185Z,5.60
2019-02-09T03:09:01.680Z,5.60
2019-02-09T03:11:36.704Z,5.70
2019-02-09T03:14:07.302Z,5.80
2019-02-09T03:16:49.926Z,6.00
2019-02-09T03:19:21.753Z,6.00
2019-02-09T03:22:00.928Z,6.00
2019-02-09T03:24:34.315Z,6.10
2019-02-09T03:27:10.722Z,6.10
2019-02-09T03:29:37.890Z,6.10
2019-02-09T03:32:14.121Z,6.10
2019-02-09T03:34:48.308Z,6.00
2019-02-09T03:37:21.085Z,6.00
2019-02-09T03:40:03.192Z,6.00
2019-02-09T03:42:25.045Z,6.00
2019-02-09T03:45:06.893Z,6.10
2019-02-09T03:47:30.770Z,6.10
2019-02-09T03:50:02.337Z,6.20
2019-02-09T03:52:34.169Z,6.70
2019-02-09T03:55:04.383Z,7.00
2019-02-09T03:57:34.656Z,7.20
2019-02-09T04:00:07.782Z,7.50
2019-02-09T04:02:44.879Z,7.60
2019-02-09T04:05:12.479Z,7.80
2019-02-09T04:07:45.639Z,7.90
2019-02-09T04:10:17.691Z,8.10
2019-02-09T04:12:56.376Z,8.20
2019-02-09T04:15:27.117Z,8.30
2019-02-09T04:17:58.483Z,8.40
2019-02-09T04:20:30.646Z,8.40
2019-02-09T04:23:03.024Z,8.40
2019-02-09T04:25:38.483Z,8.40
2019-02-09T04:28:11.224Z,8.40
2019-02-09T04:30:43.126Z,8.30
2019-02-09T04:33:13.529Z,8.20
2019-02-09T04:35:50.025Z,8.20
2019-02-09T04:38:22.469Z,8.20
2019-02-09T04:41:01.683Z,8.10
2019-02-09T04:43:35.227Z,8.20
2019-02-09T04:46:18.579Z,8.20
2019-02-09T04:48:52.060Z,8.10
2019-02-09T04:51:25.517Z,8.10
2019-02-09T04:53:59.699Z,8.00
2019-02-09T04:56:31.104Z,8.00
2019-02-09T04:59:01.348Z,8.00
2019-02-09T05:01:34.082Z,7.90
2019-02-09T05:04:18.788Z,7.90
2019-02-09T05:06:48.038Z,7.80
2019-02-09T05:12:13.837Z,7.80
2019-02-09T05:14:45.572Z,7.80
2019-02-09T05:17:15.881Z,7.80
2019-02-09T05:19:46.204Z,7.80
2019-02-09T05:22:20.562Z,7.80
2019-02-09T05:24:54.981Z,7.70
2019-02-09T05:27:27.032Z,7.70
2019-02-09T05:29:57.547Z,7.70
2019-02-09T05:32:36.517Z,7.80
2019-02-09T05:35:08.935Z,7.80
2019-02-09T05:37:45.847Z,7.80
2019-02-09T05:40:20.093Z,7.70
2019-02-09T05:42:54.533Z,7.60
2019-02-09T05:45:30.808Z,7.70
2019-02-09T05:48:01.171Z,7.70
2019-02-09T05:50:41.503Z,7.60
2019-02-09T05:53:12.024Z,7.70
2019-02-09T05:55:45.435Z,7.70
2019-02-09T05:58:25.712Z,7.60
2019-02-09T06:00:55.354Z,7.60
2019-02-09T06:03:29.039Z,7.60
2019-02-09T06:06:03.917Z,7.60
2019-02-09T06:08:42.441Z,7.50
2019-02-09T06:11:14.419Z,7.50
2019-02-09T06:13:55.237Z,7.40
2019-02-09T06:16:31.588Z,7.40
2019-02-09T06:19:05.955Z,7.40
2019-02-09T06:21:41.939Z,7.40
2019-02-09T06:24:13.971Z,7.40
2019-02-09T06:26:48.133Z,7.40
2019-02-09T06:29:24.292Z,7.50
2019-02-09T06:31:56.410Z,7.50
2019-02-09T06:34:27.922Z,7.40
2019-02-09T06:37:01.612Z,7.50
2019-02-09T06:39:33.054Z,7.50
2019-02-09T06:42:04.798Z,7.40
2019-02-09T06:44:40.746Z,7.40
2019-02-09T06:47:15.048Z,7.40
2019-02-09T06:49:47.931Z,7.40
2019-02-09T06:52:26.925Z,7.40
2019-02-09T06:55:03.843Z,7.40
2019-02-09T06:57:43.245Z,7.40
2019-02-09T07:00:18.195Z,7.50
2019-02-09T07:02:50.492Z,7.40
2019-02-09T07:05:25.407Z,7.40
2019-02-09T07:07:59.056Z,7.40
2019-02-09T07:10:33.702Z,7.50
2019-02-09T07:13:05.748Z,7.40
2019-02-09T07:15:48.344Z,7.40
2019-02-09T07:18:10.329Z,7.40
2019-02-09T07:20:44.062Z,7.50
2019-02-09T07:23:16.701Z,7.40
2019-02-09T07:25:48.573Z,7.30
2019-02-09T07:28:19.462Z,7.40
2019-02-09T07:30:50.209Z,7.40
2019-02-09T07:33:26.059Z,7.40
2019-02-09T07:36:04.501Z,7.40
2019-02-09T07:38:39.047Z,7.50
2019-02-09T07:41:09.150Z,7.60
2019-02-09T07:43:41.841Z,7.50
2019-02-09T07:46:12.028Z,7.60
2019-02-09T07:48:42.800Z,7.50
2019-02-09T07:51:14.748Z,7.60
2019-02-09T07:54:16.071Z,7.50
2019-02-09T07:56:46.591Z,7.60
2019-02-09T07:59:19.835Z,7.70
2019-02-09T08:02:04.389Z,7.60
2019-02-09T08:04:36.527Z,7.60
2019-02-09T08:07:06.745Z,7.60
2019-02-09T08:10:20.904Z,7.60
2019-02-09T08:13:00.066Z,7.60
2019-02-09T08:15:32.438Z,7.60
2019-02-09T08:18:03.064Z,7.80
2019-02-09T08:20:35.761Z,7.80
2019-02-09T08:23:12.167Z,8.00
2019-02-09T08:25:43.749Z,8.00
2019-02-09T08:28:23.679Z,8.10
2019-02-09T08:30:49.051Z,8.10
2019-02-09T08:33:25.481Z,8.20
2019-02-09T08:35:59.542Z,8.20
2019-02-09T08:42:07.041Z,8.40
2019-02-09T08:44:43.207Z,8.30
2019-02-09T08:47:14.990Z,8.40
2019-02-09T08:49:50.482Z,8.50
2019-02-09T08:52:35.635Z,8.50
2019-02-09T08:55:29.400Z,8.60
2019-02-09T08:58:09.527Z,8.60
2019-02-09T09:00:46.435Z,8.70
2019-02-09T09:04:08.982Z,8.70
2019-02-09T09:21:02.690Z,8.90
2019-02-09T09:27:12.152Z,9.10
2019-02-09T09:32:28.786Z,9.30
2019-02-09T09:35:10.846Z,9.30
2019-02-09T09:37:46.890Z,9.30
2019-02-09T09:40:22.849Z,9.30
2019-02-09T09:42:59.015Z,9.30
2019-02-09T09:46:31.129Z,9.40
2019-02-09T09:51:05.663Z,9.40
2019-02-09T09:52:01.848Z,9.40
2019-02-09T09:55:18.348Z,9.40
2019-02-09T09:57:54.857Z,9.60
2019-02-09T10:00:29.711Z,9.80
2019-02-09T10:03:01.749Z,9.70
2019-02-09T10:06:07.322Z,9.70
2019-02-09T10:12:22.302Z,9.70
2019-02-09T10:15:44.455Z,9.70
2019-02-09T10:18:34.157Z,9.60
2019-02-09T10:23:53.815Z,9.50
2019-02-09T10:26:23.647Z,9.40
2019-02-09T10:28:53.922Z,9.40
2019-02-09T10:31:24.513Z,9.40
2019-02-09T10:33:58.666Z,9.30
2019-02-09T10:36:31.113Z,9.30
2019-02-09T10:39:01.495Z,9.30
2019-02-09T10:41:35.928Z,9.40
2019-02-09T10:44:23.961Z,9.40
2019-02-09T10:47:13.126Z,9.50
2019-02-09T10:50:00.999Z,9.60
2019-02-09T10:52:38.977Z,9.60
2019-02-09T10:58:15.759Z,9.80
2019-02-09T11:00:57.702Z,9.90
2019-02-09T11:03:47.702Z,9.90
2019-02-09T11:06:41.331Z,9.90
2019-02-09T11:09:15.736Z,10.00
2019-02-09T11:12:03.599Z,10.00
2019-02-09T11:14:45.442Z,10.10
2019-02-09T11:17:14.955Z,10.10
2019-02-09T11:19:48.087Z,10.10
2019-02-09T11:22:19.112Z,10.20
2019-02-09T11:24:49.078Z,10.20
2019-02-09T11:27:25.415Z,10.30
2019-02-09T11:29:55.521Z,10.40
2019-02-09T11:32:46.363Z,10.40
2019-02-09T11:35:23.944Z,10.40
2019-02-09T11:37:57.408Z,10.40
2019-02-09T11:40:34.002Z,10.40
2019-02-09T11:43:14.652Z,10.50
2019-02-09T11:45:47.982Z,10.50
2019-02-09T11:52:01.956Z,10.50
2019-02-09T11:54:38.039Z,10.50
2019-02-09T11:57:14.994Z,10.50
2019-02-09T12:00:04.097Z,10.50
2019-02-09T12:02:38.315Z,10.50
2019-02-09T12:05:14.739Z,10.50
2019-02-09T12:07:46.598Z,10.50
2019-02-09T12:10:33.028Z,10.50
2019-02-09T12:13:05.637Z,10.50
2019-02-09T12:15:48.559Z,10.50
2019-02-09T12:18:19.815Z,10.50
2019-02-09T12:21:09.667Z,10.40
2019-02-09T12:23:42.457Z,10.30
2019-02-09T12:26:13.137Z,10.30
2019-02-09T12:28:46.198Z,10.10
2019-02-09T12:31:22.948Z,9.90
2019-02-09T12:33:55.841Z,9.90
2019-02-09T12:36:30.488Z,9.90
2019-02-09T12:39:08.837Z,9.80
2019-02-09T12:41:44.274Z,9.90
2019-02-09T12:44:15.181Z,9.90
2019-02-09T12:46:49.591Z,9.90
2019-02-09T12:49:21.641Z,9.80
2019-02-09T12:51:55.738Z,9.90
2019-02-09T12:54:43.878Z,9.90
2019-02-09T12:57:46.918Z,9.90
2019-02-09T13:00:31.108Z,10.00
2019-02-09T13:03:03.799Z,10.00
2019-02-09T13:05:41.207Z,10.00
2019-02-09T13:08:26.716Z,10.00
2019-02-09T13:10:59.874Z,10.10
2019-02-09T13:13:37.419Z,10.10
2019-02-09T13:16:13.903Z,10.10
2019-02-09T13:18:50.567Z,10.20
2019-02-09T13:21:25.291Z,10.10
2019-02-09T13:24:10.377Z,10.10
2019-02-09T13:26:48.908Z,10.20
2019-02-09T13:29:33.699Z,10.30
2019-02-09T13:32:24.692Z,10.30
2019-02-09T13:35:10.193Z,10.40
2019-02-09T13:38:08.913Z,10.40
2019-02-09T13:40:52.527Z,10.40
2019-02-09T13:43:30.254Z,10.30
2019-02-09T13:46:06.376Z,10.30
2019-02-09T13:49:04.290Z,10.30
2019-02-09T13:51:40.643Z,10.30
2019-02-09T13:55:49.858Z,10.30
2019-02-09T13:57:54.498Z,10.40
2019-02-09T14:00:36.779Z,10.30
2019-02-09T14:03:26.082Z,10.40
2019-02-09T14:06:08.297Z,10.40
2019-02-09T14:09:00.803Z,10.40
2019-02-09T14:12:11.747Z,10.40
2019-02-09T14:15:09.344Z,10.40
2019-02-09T14:17:56.112Z,10.30
2019-02-09T14:21:00.891Z,10.30
2019-02-09T14:26:34.590Z,10.20
2019-02-09T14:29:17.968Z,10.30
2019-02-09T14:32:19.124Z,10.20
2019-02-09T14:34:51.015Z,10.20
2019-02-09T14:37:27.497Z,10.20
2019-02-09T14:40:05.679Z,10.10
2019-02-09T14:42:46.400Z,10.10
2019-02-09T14:45:22.692Z,10.10
2019-02-09T14:47:57.466Z,10.10
2019-02-09T14:50:31.269Z,10.10
2019-02-09T14:53:06.345Z,10.10
2019-02-09T14:55:43.429Z,10.00
2019-02-09T14:58:17.306Z,10.00
2019-02-09T15:00:56.761Z,10.00
2019-02-09T15:03:30.799Z,9.90
2019-02-09T15:06:06.090Z,9.90
2019-02-09T15:08:39.421Z,10.00
2019-02-09T15:11:16.477Z,10.00
2019-02-09T15:13:51.901Z,10.00
2019-02-09T15:16:48.929Z,10.00
2019-02-09T15:19:23.098Z,10.00
2019-02-09T15:21:58.893Z,9.90
2019-02-09T15:24:46.329Z,10.00
2019-02-09T15:27:20.027Z,9.90
2019-02-09T15:29:51.994Z,9.90
2019-02-09T15:32:25.981Z,9.90
2019-02-09T15:34:57.775Z,9.90
2019-02-09T15:37:39.794Z,9.90
2019-02-09T15:40:13.775Z,9.80
2019-02-09T15:42:46.987Z,9.80
2019-02-09T15:45:18.582Z,9.80
2019-02-09T15:47:48.968Z,9.80
2019-02-09T15:50:21.846Z,9.70
2019-02-09T15:52:54.694Z,9.70
2019-02-09T15:55:25.128Z,9.60
2019-02-09T15:57:55.747Z,9.60
2019-02-09T16:00:31.329Z,9.60
2019-02-09T16:03:07.691Z,9.50
2019-02-09T16:05:46.293Z,9.60
2019-02-09T16:08:16.489Z,9.60
2019-02-09T16:10:48.577Z,9.70
2019-02-09T16:13:19.038Z,9.60
2019-02-09T16:15:49.447Z,9.50
2019-02-09T16:18:23.601Z,9.50
2019-02-09T16:20:57.605Z,9.50
2019-02-09T16:23:28.853Z,9.50
2019-02-09T16:26:02.312Z,9.50
2019-02-09T16:28:35.024Z,9.50
2019-02-09T16:31:06.192Z,9.50
2019-02-09T16:33:39.152Z,9.60
2019-02-09T16:36:11.619Z,9.50
2019-02-09T16:38:42.671Z,9.60
2019-02-09T16:41:17.382Z,9.50
2019-02-09T16:43:47.898Z,9.50
2019-02-09T16:46:17.985Z,9.40
2019-02-09T16:49:02.506Z,9.40
2019-02-09T16:51:20.321Z,9.50
2019-02-09T16:53:50.441Z,9.50
2019-02-09T16:56:22.174Z,9.40
2019-02-09T16:58:56.426Z,9.40
2019-02-09T17:01:27.587Z,9.30
2019-02-09T17:04:05.083Z,9.30
2019-02-09T17:07:01.051Z,9.30
2019-02-09T17:09:29.266Z,9.30
2019-02-09T17:12:01.173Z,9.30
2019-02-09T17:14:33.169Z,9.20
2019-02-09T17:17:21.154Z,9.30
2019-02-09T17:19:39.843Z,9.20
2019-02-09T17:22:09.986Z,9.20
2019-02-09T17:24:40.251Z,9.30
2019-02-09T17:27:10.603Z,9.30
2019-02-09T17:29:46.353Z,9.30
2019-02-09T17:32:30.300Z,9.40
2019-02-09T17:35:00.609Z,9.30
2019-02-09T17:37:32.251Z,9.30
2019-02-09T17:40:06.596Z,9.20
2019-02-09T17:42:38.500Z,9.30
2019-02-09T17:45:12.917Z,9.30
2019-02-09T17:47:48.110Z,9.30
2019-02-09T17:50:21.638Z,9.20
2019-02-09T17:53:00.257Z,9.20
2019-02-09T17:55:33.344Z,9.20
2019-02-09T17:58:18.193Z,9.10
2019-02-09T18:03:44.612Z,9.10
2019-02-09T18:06:22.389Z,9.10
2019-02-09T18:08:54.856Z,9.10
2019-02-09T18:12:04.942Z,9.10
2019-02-09T18:14:29.582Z,9.10
2019-02-09T18:17:05.841Z,9.00
2019-02-09T18:19:35.849Z,9.10
2019-02-09T18:22:08.550Z,9.00
2019-02-09T18:24:41.857Z,9.10
2019-02-09T18:27:14.202Z,9.00
2019-02-09T18:29:46.450Z,9.00
2019-02-09T18:32:21.937Z,9.00
2019-02-09T18:35:08.284Z,8.90
2019-02-09T18:37:28.454Z,9.00
2019-02-09T18:40:05.747Z,9.10
2019-02-09T18:43:44.527Z,9.00
2019-02-09T18:45:45.145Z,9.00
2019-02-09T18:48:24.284Z,9.00
2019-02-09T18:51:00.832Z,9.00
2019-02-09T18:53:32.260Z,9.10
2019-02-09T18:56:03.960Z,9.00
2019-02-09T18:58:33.962Z,8.90
2019-02-09T19:01:15.720Z,8.90
2019-02-09T19:03:45.893Z,9.00
2019-02-09T19:06:32.022Z,8.90
2019-02-09T19:13:18.694Z,8.80
2019-02-09T19:17:24.844Z,8.90
2019-02-09T19:19:15.411Z,8.80
2019-02-09T19:21:46.007Z,8.80
2019-02-09T19:24:19.603Z,8.80
2019-02-09T19:29:51.121Z,8.70
2019-02-09T19:32:39.533Z,8.70
2019-02-09T19:35:15.097Z,8.60
2019-02-09T19:37:58.635Z,8.60
2019-02-09T19:40:31.260Z,8.60
2019-02-09T19:43:17.923Z,8.50
2019-02-09T19:45:48.496Z,8.50
2019-02-09T19:48:20.541Z,8.60
2019-02-09T19:50:50.342Z,8.50
2019-02-09T19:53:29.637Z,8.50
2019-02-09T19:56:22.505Z,8.40
2019-02-09T19:58:35.470Z,8.30
2019-02-09T20:01:17.260Z,8.20
2019-02-09T20:03:46.119Z,8.10
2019-02-09T20:06:18.971Z,8.10
2019-02-09T20:08:50.754Z,8.20
2019-02-09T20:12:28.784Z,8.30
2019-02-09T20:14:03.483Z,8.30
2019-02-09T20:16:34.506Z,8.30
2019-02-09T20:19:05.925Z,8.20
2019-02-09T20:21:40.920Z,8.10
2019-02-09T20:24:53.683Z,8.10
2019-02-09T20:27:24.260Z,8.00
2019-02-09T21:00:46.536Z,7.90
2019-02-09T21:03:20.530Z,8.00
2019-02-09T21:05:53.879Z,7.90
2019-02-09T21:08:31.099Z,7.80
2019-02-09T21:11:05.529Z,7.70
2019-02-09T21:13:35.571Z,7.70
2019-02-09T21:16:11.347Z,7.80
2019-02-09T21:18:42.045Z,7.70
2019-02-09T21:21:15.432Z,7.60
2019-02-09T21:23:45.843Z,7.60
2019-02-09T21:26:24.949Z,7.40
2019-02-09T21:28:53.033Z,7.20
2019-02-09T21:31:29.398Z,7.20
2019-02-09T21:33:57.459Z,7.00
2019-02-09T21:36:27.585Z,7.00
2019-02-09T21:38:57.912Z,6.90
2019-02-09T21:41:28.265Z,6.90
2019-02-09T21:43:59.905Z,6.80
2019-02-09T21:46:30.093Z,6.70
2019-02-09T21:49:02.851Z,6.60
2019-02-09T21:51:33.254Z,6.40
2019-02-09T21:54:10.719Z,6.50
2019-02-09T21:56:48.957Z,6.30
2019-02-09T21:59:14.593Z,6.30
2019-02-09T22:01:45.029Z,6.20
2019-02-09T22:04:15.193Z,6.10
2019-02-09T22:06:46.955Z,6.10
2019-02-09T22:09:23.524Z,6.20
2019-02-09T22:11:57.568Z,6.20
2019-02-09T22:14:27.690Z,6.30
2019-02-09T22:17:01.311Z,6.40
2019-02-09T22:19:32.457Z,6.50
2019-02-09T22:22:02.702Z,6.40
2019-02-09T22:24:33.250Z,6.30
2019-02-09T22:27:03.629Z,6.40
2019-02-09T22:29:47.688Z,6.30
2019-02-09T22:32:18.314Z,6.30
2019-02-09T22:34:50.576Z,6.20
2019-02-09T22:37:21.634Z,6.20
2019-02-09T22:39:56.299Z,6.10
2019-02-09T22:42:29.675Z,6.10
2019-02-09T22:45:01.975Z,6.10
2019-02-09T22:47:33.768Z,6.20
2019-02-09T22:50:04.069Z,6.20
2019-02-09T22:52:41.295Z,6.20
2019-02-09T22:55:14.525Z,6.20
2019-02-09T22:57:44.440Z,6.20
2019-02-09T23:00:37.419Z,6.20
2019-02-09T23:03:12.380Z,6.30
2019-02-09T23:06:22.678Z,6.30
2019-02-09T23:08:55.530Z,6.40
2019-02-09T23:11:31.753Z,6.40
2019-02-09T23:14:01.450Z,6.40
2019-02-09T23:16:31.612Z,6.50
2019-02-09T23:19:03.123Z,6.40
2019-02-09T23:21:34.477Z,6.30
2019-02-09T23:24:07.140Z,6.20
2019-02-09T23:26:41.566Z,6.20
2019-02-09T23:29:11.564Z,6.10
2019-02-09T23:31:43.608Z,6.10
2019-02-09T23:34:14.919Z,6.10
2019-02-09T23:36:47.376Z,6.00
2019-02-09T23:39:25.714Z,6.20
2019-02-09T23:42:00.860Z,6.20
2019-02-09T23:44:32.531Z,6.20
2019-02-09T23:47:02.688Z,6.30
2019-02-09T23:49:35.459Z,6.30
2019-02-09T23:52:07.556Z,6.40
2019-02-09T23:54:50.525Z,6.40
2019-02-09T23:57:21.407Z,6.40
2019-02-09T23:59:49.984Z,6.30
